createdAt,value
2022-10-30T00:02:10.049Z,87.04
2022-10-30T00:07:11.853Z,86.89
2022-10-30T00:12:13.528Z,88.34
2022-10-30T00:17:15.185Z,89.50
2022-10-30T00:22:16.963Z,89.95
2022-10-30T00:27:19.071Z,90.18
2022-10-30T00:32:22.010Z,90.18
2022-10-30T00:37:24.508Z,89.82
2022-10-30T00:42:30.250Z,89.60
2022-10-30T00:47:39.496Z,90.09
2022-10-30T00:53:04.773Z,90.83
2022-10-30T00:58:10.090Z,91.51
2022-10-30T01:03:13.088Z,92.03
2022-10-30T01:08:14.752Z,91.57
2022-10-30T01:13:20.729Z,91.86
2022-10-30T01:18:25.394Z,92.56
2022-10-30T01:23:48.402Z,91.58
2022-10-30T01:29:17.051Z,90.39
2022-10-30T01:34:20.387Z,89.86
2022-10-30T01:39:29.481Z,90.40
2022-10-30T01:44:33.029Z,90.00
2022-10-30T01:50:14.796Z,89.18
2022-10-30T01:55:27.770Z,89.31
2022-10-30T02:00:29.529Z,89.22
2022-10-30T02:05:43.952Z,89.44
2022-10-30T02:10:48.365Z,88.92
2022-10-30T02:15:50.604Z,88.68
2022-10-30T02:20:53.923Z,89.34
2022-10-30T02:25:55.692Z,89.29
2022-10-30T02:30:57.537Z,89.18
2022-10-30T02:35:59.625Z,89.00
2022-10-30T02:41:01.304Z,88.24
2022-10-30T02:46:03.873Z,88.10
2022-10-30T02:51:06.029Z,88.20
2022-10-30T02:56:10.505Z,88.06
2022-10-30T03:01:18.450Z,88.09
2022-10-30T03:06:20.585Z,87.91
2022-10-30T03:11:22.317Z,87.20
2022-10-30T03:16:25.503Z,87.24
2022-10-30T03:21:28.042Z,88.07
2022-10-30T03:26:29.873Z,88.41
2022-10-30T03:31:42.049Z,86.72
2022-10-30T03:36:56.807Z,87.73
2022-10-30T03:41:58.511Z,87.43
2022-10-30T03:47:00.398Z,86.98
2022-10-30T03:52:06.267Z,87.53
2022-10-30T03:57:07.993Z,87.67
2022-10-30T04:07:20.001Z,88.43
2022-10-30T04:12:22.466Z,87.13
2022-10-30T04:17:24.485Z,87.31
2022-10-30T04:22:26.551Z,86.84
2022-10-30T04:27:28.338Z,86.68
2022-10-30T04:32:30.148Z,87.09
2022-10-30T04:37:31.918Z,86.89
2022-10-30T04:42:34.909Z,86.87
2022-10-30T04:47:36.631Z,87.67
2022-10-30T04:52:39.931Z,87.18
2022-10-30T04:57:41.973Z,87.54
2022-10-30T05:07:50.568Z,87.62
2022-10-30T05:12:54.313Z,87.53
2022-10-30T05:17:57.074Z,87.58
2022-10-30T05:22:59.568Z,86.89
2022-10-30T05:28:04.232Z,87.15
2022-10-30T05:33:12.674Z,87.37
2022-10-30T05:38:15.381Z,86.59
2022-10-30T05:43:17.470Z,85.44
2022-10-30T05:48:19.264Z,85.93
2022-10-30T05:53:22.052Z,86.90
2022-10-30T05:58:24.203Z,87.26
2022-10-30T06:03:26.956Z,86.93
2022-10-30T06:08:29.660Z,86.91
2022-10-30T06:13:34.209Z,87.34
2022-10-30T06:18:47.038Z,87.36
2022-10-30T06:23:49.564Z,87.63
2022-10-30T06:29:11.735Z,87.72
2022-10-30T06:34:13.569Z,87.95
2022-10-30T06:39:16.919Z,87.82
2022-10-30T06:44:38.898Z,87.95
2022-10-30T06:49:40.790Z,88.64
2022-10-30T06:54:42.558Z,89.20
2022-10-30T07:00:08.431Z,89.25
2022-10-30T07:05:28.752Z,89.66
2022-10-30T07:10:31.000Z,90.01
2022-10-30T07:15:55.591Z,90.05
2022-10-30T07:20:59.559Z,90.79
2022-10-30T07:26:04.162Z,91.52
2022-10-30T07:31:12.300Z,91.90
2022-10-30T07:36:33.967Z,92.13
2022-10-30T07:41:39.041Z,92.40
2022-10-30T07:46:59.219Z,92.91
2022-10-30T07:52:22.062Z,93.95
2022-10-30T07:57:24.366Z,94.57
2022-10-30T08:02:56.848Z,94.95
2022-10-30T08:08:18.877Z,94.92
2022-10-30T08:13:27.367Z,95.49
2022-10-30T08:18:29.104Z,96.09
2022-10-30T08:23:31.210Z,96.20
2022-10-30T08:28:35.348Z,96.07
2022-10-30T08:33:40.208Z,96.56
2022-10-30T08:39:21.025Z,96.48
2022-10-30T08:44:54.931Z,96.55
2022-10-30T08:49:56.675Z,97.42
2022-10-30T08:55:02.892Z,98.41
2022-10-30T09:00:06.346Z,98.66
2022-10-30T09:05:26.833Z,99.36
2022-10-30T09:10:58.332Z,100.00
2022-10-30T09:16:01.277Z,100.00
2022-10-30T09:21:05.404Z,100.00
2022-10-30T09:26:17.051Z,100.00
2022-10-30T09:31:28.609Z,100.00
2022-10-30T09:36:32.211Z,100.00
2022-10-30T09:41:45.815Z,100.00
2022-10-30T09:47:23.029Z,100.00
2022-10-30T09:52:38.727Z,98.79
2022-10-30T09:57:45.094Z,97.98
2022-10-30T10:03:09.741Z,96.60
2022-10-30T10:08:34.977Z,93.94
2022-10-30T10:14:21.444Z,92.20
2022-10-30T10:19:35.739Z,91.26
2022-10-30T10:24:44.303Z,90.40
2022-10-30T10:29:56.073Z,89.62
2022-10-30T10:35:19.183Z,89.18
2022-10-30T10:41:03.025Z,88.12
2022-10-30T10:46:31.187Z,86.85
2022-10-30T10:51:39.181Z,86.27
2022-10-30T10:56:45.040Z,85.60
2022-10-30T11:02:29.506Z,85.48
2022-10-30T11:07:35.741Z,84.20
2022-10-30T11:12:37.612Z,83.72
2022-10-30T11:17:45.548Z,81.87
2022-10-30T11:22:51.320Z,79.29
2022-10-30T11:27:58.948Z,79.71
2022-10-30T11:33:21.527Z,78.47
2022-10-30T11:38:26.789Z,76.10
2022-10-30T11:43:28.833Z,74.98
2022-10-30T11:48:33.843Z,74.17
2022-10-30T11:53:42.743Z,73.09
2022-10-30T11:58:48.741Z,72.19
2022-10-30T12:03:51.271Z,71.82
2022-10-30T12:09:22.594Z,71.75
2022-10-30T12:14:27.148Z,71.22
2022-10-30T12:19:30.611Z,70.48
2022-10-30T12:24:36.281Z,71.46
2022-10-30T12:35:22.196Z,69.68
2022-10-30T12:40:29.349Z,71.24
2022-10-30T12:45:39.125Z,72.04
2022-10-30T12:51:02.354Z,71.40
2022-10-30T12:56:15.170Z,70.71
2022-10-30T13:01:26.885Z,70.55
2022-10-30T13:06:36.654Z,70.06
2022-10-30T13:12:01.469Z,70.85
2022-10-30T13:17:03.231Z,70.59
2022-10-30T13:22:13.097Z,70.53
2022-10-30T13:27:41.867Z,70.98
2022-10-30T13:33:02.328Z,71.06
2022-10-30T13:38:04.606Z,70.92
2022-10-30T13:43:24.939Z,70.46
2022-10-30T13:48:43.329Z,69.53
2022-10-30T13:53:48.640Z,70.06
2022-10-30T13:59:08.485Z,69.19
2022-10-30T14:04:20.449Z,70.32
2022-10-30T14:09:43.410Z,70.29
2022-10-30T14:14:48.286Z,70.78
2022-10-30T14:20:10.131Z,71.47
2022-10-30T14:25:16.380Z,71.48
2022-10-30T14:30:19.883Z,71.46
2022-10-30T14:35:36.457Z,71.22
2022-10-30T14:40:47.337Z,71.99
2022-10-30T14:45:56.289Z,72.50
2022-10-30T14:51:20.039Z,72.98
2022-10-30T14:56:41.012Z,73.82
2022-10-30T15:01:52.717Z,74.96
2022-10-30T15:07:05.685Z,75.86
2022-10-30T15:12:11.874Z,76.77
2022-10-30T15:17:20.924Z,77.35
2022-10-30T15:22:26.276Z,77.45
2022-10-30T15:27:29.163Z,79.04
2022-10-30T15:32:31.023Z,79.94
2022-10-30T15:37:32.689Z,80.87
2022-10-30T15:42:35.217Z,81.17
2022-10-30T15:47:39.327Z,81.24
2022-10-30T15:52:43.885Z,82.94
2022-10-30T15:58:02.963Z,84.14
2022-10-30T16:03:16.016Z,84.39
2022-10-30T16:08:23.388Z,84.73
2022-10-30T16:13:30.852Z,85.27
2022-10-30T16:18:35.992Z,85.93
2022-10-30T16:23:47.040Z,86.63
2022-10-30T16:28:48.925Z,87.17
2022-10-30T16:33:51.020Z,87.17
2022-10-30T16:38:53.145Z,86.83
2022-10-30T16:44:13.842Z,86.44
2022-10-30T16:49:19.365Z,86.84
2022-10-30T16:54:25.148Z,87.58
2022-10-30T16:59:29.023Z,87.73
2022-10-30T17:04:31.700Z,88.29
2022-10-30T17:09:35.736Z,89.15
2022-10-30T17:15:09.958Z,89.08
2022-10-30T17:20:21.851Z,89.10
2022-10-30T17:25:37.270Z,89.12
2022-10-30T17:30:41.609Z,89.27
2022-10-30T17:35:43.400Z,88.84
2022-10-30T17:40:45.332Z,88.50
2022-10-30T17:45:47.223Z,88.97
2022-10-30T17:50:49.048Z,88.60
2022-10-30T17:55:58.570Z,88.86
2022-10-30T18:01:00.527Z,88.75
2022-10-30T18:06:02.953Z,89.01
2022-10-30T18:11:05.215Z,89.11
2022-10-30T18:16:10.804Z,89.15
2022-10-30T18:21:18.434Z,88.50
2022-10-30T18:26:25.999Z,87.93
2022-10-30T18:31:27.673Z,87.32
2022-10-30T18:36:29.568Z,87.09
2022-10-30T18:41:36.625Z,87.19
2022-10-30T18:46:38.239Z,87.88
2022-10-30T18:51:40.186Z,87.94
2022-10-30T18:56:41.848Z,88.18
2022-10-30T19:01:43.603Z,88.82
2022-10-30T19:06:45.364Z,89.19
2022-10-30T19:11:47.072Z,89.27
2022-10-30T19:16:48.762Z,89.39
2022-10-30T19:21:52.457Z,89.58
2022-10-30T19:26:54.314Z,89.87
2022-10-30T19:31:56.080Z,89.70
2022-10-30T19:36:57.731Z,88.32
2022-10-30T19:41:59.502Z,87.92
2022-10-30T19:47:01.217Z,87.98
2022-10-30T19:52:04.574Z,88.02
2022-10-30T19:57:08.608Z,89.10
2022-10-30T20:02:10.827Z,88.25
2022-10-30T20:07:12.585Z,86.05
2022-10-30T20:12:14.238Z,86.18
2022-10-30T20:17:15.975Z,86.71
2022-10-30T20:22:17.732Z,87.42
2022-10-30T20:27:20.225Z,88.57
2022-10-30T20:32:22.173Z,90.04
2022-10-30T20:37:24.021Z,88.28
2022-10-30T20:42:26.105Z,87.58
2022-10-30T20:47:28.985Z,87.79
2022-10-30T20:52:30.754Z,89.40
2022-10-30T20:57:32.562Z,89.99
2022-10-30T21:02:34.609Z,90.26
2022-10-30T21:07:36.720Z,89.57
2022-10-30T21:12:38.369Z,87.54
2022-10-30T21:17:40.160Z,87.18
2022-10-30T21:22:41.818Z,87.64
2022-10-30T21:27:43.484Z,87.93
2022-10-30T21:32:45.169Z,87.59
2022-10-30T21:37:46.910Z,87.38
2022-10-30T21:42:48.708Z,87.54
2022-10-30T21:47:53.411Z,86.96
2022-10-30T21:52:55.115Z,86.75
2022-10-30T21:57:56.952Z,86.37
2022-10-30T22:02:58.911Z,86.55
2022-10-30T22:08:00.909Z,87.16
2022-10-30T22:13:02.973Z,88.11
2022-10-30T22:18:04.929Z,88.11
2022-10-30T22:23:06.584Z,87.21
2022-10-30T22:28:08.360Z,85.82
2022-10-30T22:33:10.027Z,85.98
2022-10-30T22:38:12.066Z,85.68
2022-10-30T22:43:13.777Z,86.79
2022-10-30T22:48:15.464Z,87.56
2022-10-30T22:53:17.123Z,87.44
2022-10-30T23:03:20.508Z,88.04
2022-10-30T23:08:22.165Z,88.36
2022-10-30T23:13:24.649Z,86.50
2022-10-30T23:18:26.597Z,86.25
2022-10-30T23:23:28.259Z,86.45
2022-10-30T23:28:30.063Z,86.73
2022-10-30T23:33:31.963Z,86.74
2022-10-30T23:38:33.698Z,86.35
2022-10-30T23:43:35.373Z,86.64
2022-10-30T23:48:37.025Z,86.40
2022-10-30T23:53:38.648Z,86.44
2022-10-30T23:58:43.574Z,86.92
